Knoxville, TN (37917)

6:15 PM EDT on March 26, 2017 (GMT -0400)
Orchid Hills | | Change Station

Elev 978 ft 35.98 °N, 83.87 °W | Updated 12 seconds ago

Partly Cloudy
Partly Cloudy
72.5 °F
Feels Like 76 °F
N
3.1
Wind Variable Wind from SSW
Gusts 4.9 mph

Today
High -- | Low -- °F
--% Chance of Precip.
Yesterday
High -- | Low -- °F
Precip. -- in
Pressure 29.97 in
Visibility 10.0 miles
Clouds Few 9500 ft
Scattered Clouds 12000 ft
Heat Index 76 °F
Dew Point 37 °F
Humidity 27%
Rainfall 0.27 in
Snow Depth Not available.
7:30 AM 7:52 PM
Waning Crescent, 2% visible
METAR KTYS 262153Z 21011KT 10SM FEW095 SCT120 21/13 A2999 RMK AO2 PK WND 19029/2117 RAB17E32 SLP147 P0000 T02110133
Pressure 29.97 in
Visibility 10.0 miles
Clouds Few 9500 ft
Scattered Clouds 12000 ft
Heat Index 76 °F
Dew Point 37 °F
Humidity 27%
Rainfall 0.27 in
Snow Depth Not available.
7:30 AM 7:52 PM
Waning Crescent, 2% visible
METAR KTYS 262153Z 21011KT 10SM FEW095 SCT120 21/13 A2999 RMK AO2 PK WND 19029/2117 RAB17E32 SLP147 P0000 T02110133

Get Severe Weather Alerts

Thanks for signing up!

Be on the lookout for a verification email in your inbox.

You'll start receiving the daily forecast at 8 AM.

×

10-Day Weather Forecast

Almanac

Astronomy

Mar. 26, 2017 Rise Set
Actual Time
Civil Twilight
Nautical Twilight
Astronomical Twilight
Moon
Length of Visible Light
Length of Day
Tomorrow will be .
, % of the Moon is Illuminated

Today's Extremes

State Highs State Lows

Community

WunderPhotos

Upload Photos

1,962,540 photos uploaded!

WunderBlog® & News

Nearby

Air Quality

  Air Quality AQ Index Pollutant
Not available.

Snow Depth

Station Depth Elevation

Earthquake Activity

City Distance Mag. Time & Date
Minimum magnitude displayed is 2.5.

Earthquake Activity

City Distance Mag. Time & Date
Minimum magnitude displayed is 2.5.

Coastal Water Temperatures

Place Temperature

Stations

Nearby Weather Stations

Station Location Temp. Windchill Dew Point Humidity Wind Precip. Elev Updated Type
                   

Watches & Warnings

There are currently no watches in effect.